ADDS METAR Data INFO
IDs: Format: Raw Decoded Include TAF

Data at: 0220 UTC 18 Jan 2018

KHZE 180215Z AUTO 25011KT 10SM CLR M02/M05 A3001 RMK AO2
KHZE 180155Z AUTO 23011KT 10SM CLR M02/M06 A3001 RMK AO2
KHZE 180135Z AUTO 22011KT 10SM CLR M01/M05 A3001 RMK AO2
KHZE 180115Z AUTO 23011KT 10SM CLR M01/M05 A3002 RMK AO2
KHZE 180055Z AUTO 23009KT 10SM CLR M01/M05 A3002 RMK AO2
KHZE 180035Z AUTO 23011KT 10SM CLR 00/M05 A3003 RMK AO2
KHZE 180015Z AUTO 23010KT 10SM CLR M00/M05 A3004 RMK AO2
KHZE 172355Z AUTO 23013KT 10SM CLR 00/M04 A3004 RMK AO2
KHZE 172335Z AUTO 23015KT 10SM CLR 01/M04 A3004 RMK AO2
KHZE 172315Z AUTO 24012KT 10SM CLR 00/M04 A3005 RMK AO2
KHZE 172255Z AUTO 24013KT 10SM CLR 01/M04 A3005 RMK AO2
KHZE 172235Z AUTO 25013KT 10SM CLR 02/M03 A3006 RMK AO2
KHZE 172215Z AUTO 25014KT 10SM CLR 02/M03 A3005 RMK AO2
KHZE 172155Z AUTO 25015KT 10SM CLR 02/M03 A3005 RMK AO2
KHZE 172135Z AUTO 25011KT 10SM CLR 02/M03 A3006 RMK AO2
KHZE 172115Z AUTO 25009KT 10SM CLR 02/M03 A3006 RMK AO2
KHZE 172055Z AUTO 27006KT 10SM CLR 02/M03 A3007 RMK AO2
KHZE 172035Z AUTO 27010G16KT 10SM CLR 03/M04 A3007 RMK AO2
KHZE 172015Z AUTO 25011KT 10SM CLR 03/M04 A3008 RMK AO2
KHZE 171955Z AUTO 26013KT 10SM CLR 02/M04 A3008 RMK AO2
KHZE 171935Z AUTO 26011KT 10SM CLR 02/M04 A3009 RMK AO2
KHZE 171915Z AUTO 26013KT 10SM CLR 02/M04 A3009 RMK AO2
KHZE 171855Z AUTO 25012KT 10SM CLR 01/M05 A3010 RMK AO2
KHZE 171835Z AUTO 25013KT 10SM CLR 01/M05 A3010 RMK AO2
KHZE 171815Z AUTO 25008KT 10SM CLR 00/M05 A3011 RMK AO2
KHZE 171755Z AUTO 24008KT 10SM CLR M00/M06 A3011 RMK AO2
KHZE 171735Z AUTO 25009KT 10SM CLR M01/M06 A3011 RMK AO2
KHZE 171715Z AUTO 24009KT 10SM CLR M02/M07 A3012 RMK AO2
KHZE 171655Z AUTO 25012KT 10SM CLR M02/M07 A3012 RMK AO2
KHZE 171635Z AUTO 25012KT 10SM CLR M04/M08 A3011 RMK AO2
KHZE 171615Z AUTO 25010KT 10SM CLR M05/M10 A3011 RMK AO2
KHZE 171555Z AUTO 26008KT 10SM CLR M07/M11 A3011 RMK AO2
KHZE 171535Z AUTO 24009G16KT 10SM CLR M06/M10 A3011 RMK AO2
KHZE 171515Z AUTO 23010KT 10SM CLR M08/M11 A3011 RMK AO2
KHZE 171455Z AUTO 24008KT 10SM CLR M11/M14 A3011 RMK AO2
KHZE 171435Z AUTO 24008KT 10SM CLR M10/M14 A3011 RMK AO2
KHZE 171415Z AUTO 23008KT 10SM CLR M10/M14 A3011 RMK AO2
KHZE 171355Z AUTO 24008KT 10SM CLR M12/M15 A3012 RMK AO2
KHZE 171335Z AUTO 25009KT 10SM CLR M12/M15 A3011 RMK AO2
KHZE 171315Z AUTO 24008KT 10SM CLR M12/M15 A3011 RMK AO2
KHZE 171255Z AUTO 23008KT 10SM CLR M13/M16 A3011 RMK AO2
KHZE 171235Z AUTO 25009KT 10SM CLR M14/M17 A3011 RMK AO2
KHZE 171215Z AUTO 24003KT 10SM CLR M14/M18 A3012 RMK AO2
KHZE 171155Z AUTO 24005KT 10SM CLR M15/M18 A3012 RMK AO2
KHZE 171135Z AUTO 24005KT 10SM CLR M15/M19 A3012 RMK AO2
KHZE 171115Z AUTO 24009KT 10SM CLR M16/M19 A3012 RMK AO2
KHZE 171055Z AUTO 25006KT 10SM CLR M15/M19 A3012 RMK AO2
KHZE 171035Z AUTO 24008KT 10SM CLR M15/M18 A3012 RMK AO2
KHZE 171015Z AUTO 25009KT 10SM CLR M16/M19 A3012 RMK AO2
KHZE 170955Z AUTO 25007KT 10SM CLR M17/M20 A3013 RMK AO2
KHZE 170935Z AUTO 25006KT 10SM CLR M18/M20 A3013 RMK AO2
KHZE 170915Z AUTO 27003KT 10SM CLR M18/M20 A3013 RMK AO2
KHZE 170855Z AUTO 26004KT 10SM CLR M17/M20 A3013 RMK AO2
KHZE 170835Z AUTO 25007KT 10SM CLR M16/M19 A3013 RMK AO2
KHZE 170815Z AUTO 24007KT 10SM CLR M14/M18 A3014 RMK AO2
KHZE 170755Z AUTO 22007KT 10SM CLR M14/M18 A3014 RMK AO2
KHZE 170735Z AUTO 23007KT 10SM CLR M14/M18 A3015 RMK AO2
KHZE 170715Z AUTO 24005KT 10SM CLR M15/M19 A3016 RMK AO2
KHZE 170655Z AUTO 22005KT 10SM CLR M14/M18 A3017 RMK AO2
KHZE 170635Z AUTO 24008KT 10SM CLR M14/M18 A3019 RMK AO2
KHZE 170615Z AUTO 23008G13KT 10SM CLR M13/M18 A3019 RMK AO2
KHZE 170555Z AUTO 21008KT 10SM CLR M13/M18 A3019 RMK AO2
KHZE 170535Z AUTO 22006KT 10SM CLR M13/M18 A3020 RMK AO2
KHZE 170515Z AUTO 21008KT 10SM CLR M13/M18 A3022 RMK AO2
KHZE 170455Z AUTO 21007KT 10SM CLR M13/M18 A3022 RMK AO2
KHZE 170435Z AUTO 21006KT 10SM CLR M13/M18 A3023 RMK AO2
KHZE 170415Z AUTO 23007KT 10SM CLR M14/M19 A3022 RMK AO2
KHZE 170355Z AUTO 22006KT 10SM CLR M14/M19 A3023 RMK AO2
KHZE 170335Z AUTO 24005KT 10SM CLR M14/M19 A3024 RMK AO2
KHZE 170315Z AUTO 23006KT 10SM CLR M13/M19 A3024 RMK AO2
KHZE 170255Z AUTO 23006KT 10SM CLR M13/M19 A3025 RMK AO2
KHZE 170235Z AUTO 22006KT 10SM CLR M13/M20 A3026 RMK AO2
KHZE 170215Z AUTO 23005KT 10SM CLR M13/M20 A3027 RMK AO2
KHZE 170155Z AUTO 22006KT 10SM CLR M13/M20 A3028 RMK AO2
KHZE 170135Z AUTO 21005KT 10SM CLR M13/M21 A3029 RMK AO2
KHZE 170115Z AUTO 00000KT 10SM CLR M14/M21 A3029 RMK AO2
KHZE 170055Z AUTO 20010KT 10SM CLR M12/M21 A3029 RMK AO2
KHZE 170035Z AUTO VRB06KT 10SM CLR M12/M21 A3031 RMK AO2
KHZE 170015Z AUTO 20005KT 10SM CLR M13/M20 A3031 RMK AO2
KHZE 162355Z AUTO 18008KT 10SM CLR M14/M21 A3032 RMK AO2
KHZE 162335Z AUTO 18007KT 10SM CLR M14/M21 A3034 RMK AO2
KHZE 162315Z AUTO 17006KT 10SM CLR M12/M20 A3036 RMK AO2
KHZE 162255Z AUTO 18007KT 10SM CLR M12/M20 A3037 RMK AO2
KHZE 162235Z AUTO 19008KT 10SM CLR M11/M20 A3037 RMK AO2
KHZE 162215Z AUTO 20008KT 10SM CLR M11/M20 A3038 RMK AO2
KHZE 162155Z AUTO 21010G16KT 10SM CLR M11/M20 A3038 RMK AO2
KHZE 162135Z AUTO 21013KT 10SM CLR M11/M20 A3038 RMK AO2
KHZE 162115Z AUTO 22012KT 10SM CLR M11/M20 A3039 RMK AO2
KHZE 162055Z AUTO 21010KT 10SM CLR M11/M21 A3041 RMK AO2
KHZE 162035Z AUTO 21009KT 10SM CLR M11/M21 A3042 RMK AO2
KHZE 162015Z AUTO 19007KT 10SM CLR M12/M21 A3043 RMK AO2
KHZE 161955Z AUTO 19005KT 10SM CLR M12/M22 A3045 RMK AO2
KHZE 161935Z AUTO 21007KT 10SM CLR M12/M22 A3045 RMK AO2
KHZE 161915Z AUTO 21008KT 10SM CLR M13/M23 A3045 RMK AO2
KHZE 161855Z AUTO 22009KT 10SM CLR M14/M23 A3047 RMK AO2
KHZE 161835Z AUTO 22007KT 10SM CLR M14/M23 A3048 RMK AO2
KHZE 161815Z AUTO VRB03KT 10SM CLR M15/M23 A3051 RMK AO2
KHZE 161755Z AUTO 24006KT 10SM CLR M16/M23 A3052 RMK AO2
KHZE 161735Z AUTO 23005G10KT 10SM CLR M17/M24 A3051 RMK AO2
KHZE 161715Z AUTO 21009KT 10SM CLR M18/M24 A3053 RMK AO2
KHZE 161655Z AUTO 23006KT 10SM CLR M19/M24 A3056 RMK AO2
KHZE 161635Z AUTO 24005KT 10SM CLR M25/M29 A3055 RMK AO2
KHZE 161615Z AUTO 00000KT 10SM CLR M26/M30 A3056 RMK AO2
KHZE 161555Z AUTO 00000KT 10SM CLR M28/M32 A3058 RMK AO2
KHZE 161535Z AUTO 00000KT 10SM CLR M29/M32 A3059 RMK AO2
KHZE 161515Z AUTO 6SM HZ M29/M33 A3060 RMK AO2
KHZE 161455Z AUTO 10SM M29/M33 A3060 RMK AO2
KHZE 161435Z AUTO 10SM M30/M34 A3062 RMK AO2